Arcadia, Iowa
Current Conditions -  °F | °C
As of 9:55 AM on Thursday 27 Nov 2014 (Local Time) from KCIN Reporting Station
Clear Clear  
Wind Chill:   Ceiling: Unl
Heat Index:   Visibility: 10mi
Dew Point: -8°   Wind: 3mph
Humidity: 66%   Direction: 330°NNW
Pressure: 30.54"   Gusts: NA
Location:  42.09°N, 95.05°W
Report Text: KCIN 271555Z AUTO 33003KT 10SM CLR M17/M22 A3054 RMK AO2
Loading
Personal Weather Stations






























Interactive Weather Map New forecast layout! Learn more

10-Day Weather Forecast

Advertisements
Track Severe Weather on mobile